Time;durP1;ratioP1;P1;durP2;ratioP2;P2;SDS_P1;SDS_P2;PMS_P1;PMS_P2;Temp;Humidity;BMP_temperature;BMP_pressure;BME280_temperature;BME280_humidity;BME280_pressure;Samples;Min_cycle;Max_cycle;Signal;HPM_P1;HPM_P2
2021/12/01 00:01:00;;;;;;;41.55;15.55;;;7.20;99.90;;;;;;4844696;29;20042;-75
2021/12/01 00:03:25;;;;;;;39.67;15.18;;;7.20;99.90;;;;;;4844372;29;20057;-72
2021/12/01 00:05:51;;;;;;;37.60;13.88;;;7.20;99.90;;;;;;4827646;29;20058;-71
2021/12/01 00:08:17;;;;;;;38.20;14.63;;;7.50;99.90;;;;;;4827475;29;20046;-72
2021/12/01 00:10:44;;;;;;;37.33;13.90;;;7.30;99.90;;;;;;4844437;29;20418;-73
2021/12/01 00:13:13;;;;;;;38.92;14.68;;;7.40;99.90;;;;;;4844472;29;20042;-73
2021/12/01 00:15:40;;;;;;;42.40;15.77;;;7.50;99.90;;;;;;4844223;29;20052;-72
2021/12/01 00:18:06;;;;;;;43.75;16.73;;;7.50;99.90;;;;;;4827595;29;20057;-72
2021/12/01 00:20:32;;;;;;;41.05;16.40;;;8.00;99.90;;;;;;4843743;29;20050;-73
2021/12/01 00:22:59;;;;;;;41.53;16.45;;;8.10;99.90;;;;;;4843587;29;20506;-72
2021/12/01 00:25:25;;;;;;;42.53;15.48;;;7.60;99.90;;;;;;4844187;29;20086;-72
2021/12/01 00:27:53;;;;;;;43.70;16.75;;;7.70;99.90;;;;;;4842694;29;20049;-73
2021/12/01 00:30:20;;;;;;;43.20;16.88;;;7.90;99.90;;;;;;4843883;29;20042;-73
2021/12/01 00:32:46;;;;;;;44.30;17.05;;;7.80;99.90;;;;;;4843734;29;20396;-72
2021/12/01 00:35:11;;;;;;;38.90;15.63;;;7.80;99.90;;;;;;4843930;29;20050;-73
2021/12/01 00:37:39;;;;;;;41.40;15.90;;;7.90;99.90;;;;;;4844191;29;20041;-73
2021/12/01 00:40:06;;;;;;;35.90;15.85;;;7.90;99.90;;;;;;4843511;29;20118;-73
2021/12/01 00:42:32;;;;;;;37.63;15.23;;;8.00;99.90;;;;;;4843794;29;20057;-73
2021/12/01 00:45:01;;;;;;;32.88;14.27;;;8.00;99.90;;;;;;4842569;29;20098;-72
2021/12/01 00:47:41;;;;;;;36.20;16.92;;;8.40;99.90;;;;;;4843564;29;20046;-74
2021/12/01 00:50:08;;;;;;;31.58;14.50;;;8.10;99.90;;;;;;4843784;29;20110;-74
2021/12/01 00:52:34;;;;;;;37.33;16.33;;;8.10;99.90;;;;;;4843682;29;20522;-74
2021/12/01 00:54:59;;;;;;;37.95;16.00;;;8.20;99.90;;;;;;4843289;29;20137;-73
2021/12/01 00:57:25;;;;;;;32.58;14.85;;;8.20;99.90;;;;;;4842555;29;20057;-74
2021/12/01 00:59:50;;;;;;;40.50;17.08;;;8.20;99.90;;;;;;4842390;29;20514;-74
2021/12/01 01:02:16;;;;;;;35.03;15.88;;;8.20;99.90;;;;;;4826914;29;20046;-74
2021/12/01 01:04:42;;;;;;;33.22;16.05;;;8.50;99.90;;;;;;4842294;29;20514;-74
2021/12/01 01:07:07;;;;;;;32.78;16.52;;;8.30;99.90;;;;;;4842049;29;20065;-74
2021/12/01 01:09:33;;;;;;;34.47;17.33;;;8.40;99.90;;;;;;4827155;29;20060;-75
2021/12/01 01:17:36;;;;;;;39.17;18.02;;;8.40;99.90;;;;;;4843322;29;20050;-74
2021/12/01 01:20:08;;;;;;;34.78;18.02;;;8.50;99.90;;;;;;4843069;29;20054;-74
2021/12/01 01:22:34;;;;;;;33.70;16.83;;;8.50;99.90;;;;;;4841910;29;20157;-74
2021/12/01 01:25:00;;;;;;;34.63;16.55;;;8.50;99.90;;;;;;4842931;29;20152;-75
2021/12/01 01:27:25;;;;;;;33.97;16.60;;;8.50;99.90;;;;;;4841217;29;20444;-74
2021/12/01 01:29:51;;;;;;;34.00;16.85;;;8.50;99.90;;;;;;4841287;29;20395;-74
2021/12/01 01:32:16;;;;;;;33.85;16.92;;;8.50;99.90;;;;;;4841815;29;20383;-74
2021/12/01 01:34:42;;;;;;;34.28;17.00;;;9.00;99.90;;;;;;4841757;29;20050;-77
2021/12/01 01:37:08;;;;;;;30.98;15.63;;;8.60;99.90;;;;;;4826818;29;20054;-73
2021/12/01 01:39:33;;;;;;;32.17;16.98;;;8.60;99.90;;;;;;4842887;29;20130;-75
2021/12/01 01:41:59;;;;;;;32.30;16.20;;;8.60;99.90;;;;;;4842534;29;20050;-75
2021/12/01 01:44:25;;;;;;;30.55;16.02;;;9.00;99.90;;;;;;4840687;29;20066;-74
2021/12/01 01:46:50;;;;;;;34.17;16.85;;;8.90;99.90;;;;;;4841717;29;20558;-74
2021/12/01 01:49:23;;;;;;;31.92;16.80;;;8.70;99.90;;;;;;4842672;29;20066;-75
2021/12/01 01:51:49;;;;;;;27.40;15.05;;;8.70;99.90;;;;;;4810773;29;20050;-70
2021/12/01 01:54:16;;;;;;;31.30;15.60;;;8.70;99.90;;;;;;4842861;29;20078;-73
2021/12/01 01:56:42;;;;;;;30.13;15.20;;;8.70;99.90;;;;;;4842585;29;20054;-74
2021/12/01 01:59:09;;;;;;;31.33;16.05;;;8.70;99.90;;;;;;4842262;29;20045;-74
2021/12/01 02:01:44;;;;;;;33.03;15.60;;;8.80;99.90;;;;;;4842651;29;20110;-74
2021/12/01 02:04:16;;;;;;;31.10;15.38;;;8.70;99.90;;;;;;4842454;29;20114;-74
2021/12/01 02:06:46;;;;;;;28.92;14.88;;;8.70;99.90;;;;;;4842762;29;20050;-73
2021/12/01 02:09:12;;;;;;;31.48;14.77;;;8.70;99.90;;;;;;4842512;29;20554;-73
2021/12/01 02:11:38;;;;;;;24.42;13.90;;;8.70;99.90;;;;;;4842209;29;20487;-74
2021/12/01 02:14:05;;;;;;;30.30;13.45;;;9.20;99.90;;;;;;4842193;29;20463;-74
2021/12/01 02:16:31;;;;;;;27.48;14.57;;;8.70;99.90;;;;;;4842587;29;20046;-74
2021/12/01 02:18:57;;;;;;;26.40;13.95;;;8.70;99.90;;;;;;4826012;29;20097;-77
2021/12/01 02:21:27;;;;;;;29.73;12.30;;;8.70;99.90;;;;;;4841209;29;20046;-74
2021/12/01 02:23:59;;;;;;;25.17;11.80;;;9.10;99.90;;;;;;4842414;29;20061;-75
2021/12/01 02:26:27;;;;;;;30.23;13.55;;;8.70;99.90;;;;;;4842100;29;20058;-74
2021/12/01 02:28:58;;;;;;;25.38;13.68;;;8.70;99.90;;;;;;4842026;29;20514;-74
2021/12/01 02:31:28;;;;;;;27.17;14.63;;;9.20;99.90;;;;;;4842249;29;20050;-73
2021/12/01 02:33:55;;;;;;;25.27;12.75;;;8.70;99.90;;;;;;4842426;29;20098;-73
2021/12/01 02:36:21;;;;;;;24.88;12.75;;;8.70;99.90;;;;;;4842248;29;20069;-73
2021/12/01 02:38:49;;;;;;;23.27;12.05;;;8.70;99.90;;;;;;4825707;29;20133;-74
2021/12/01 02:41:16;;;;;;;23.20;11.75;;;8.70;99.90;;;;;;4827324;29;20133;-76
2021/12/01 02:43:44;;;;;;;21.60;11.55;;;8.70;99.90;;;;;;4846071;29;20152;-72
2021/12/01 02:46:10;;;;;;;20.63;11.00;;;8.80;99.90;;;;;;4845686;29;20056;-74
2021/12/01 02:48:41;;;;;;;23.95;11.65;;;9.10;99.90;;;;;;4845841;29;20046;-75
2021/12/01 02:51:11;;;;;;;23.73;11.57;;;8.80;99.90;;;;;;4845756;29;20469;-73
2021/12/01 02:53:38;;;;;;;20.05;10.23;;;8.80;99.90;;;;;;4845347;29;20058;-74
2021/12/01 02:56:05;;;;;;;22.15;10.00;;;8.80;99.90;;;;;;4844335;29;20038;-73
2021/12/01 02:58:37;;;;;;;18.02;9.15;;;8.80;99.90;;;;;;4843664;29;20073;-74
2021/12/01 03:01:06;;;;;;;18.52;9.68;;;8.80;99.90;;;;;;4845125;29;20074;-74
2021/12/01 03:03:32;;;;;;;15.30;8.00;;;8.80;99.90;;;;;;4845570;29;20082;-74
2021/12/01 03:05:59;;;;;;;18.88;8.27;;;8.80;99.90;;;;;;4845419;29;20050;-73
2021/12/01 03:08:25;;;;;;;14.02;7.20;;;8.80;99.90;;;;;;4829098;29;20418;-74
2021/12/01 03:10:53;;;;;;;13.93;6.80;;;8.90;99.90;;;;;;4844264;29;20042;-72
2021/12/01 03:13:22;;;;;;;15.05;7.18;;;9.00;99.90;;;;;;4845571;29;20057;-74
2021/12/01 03:15:48;;;;;;;13.20;6.75;;;9.00;99.90;;;;;;4828859;29;20060;-74
2021/12/01 03:18:15;;;;;;;14.48;6.78;;;8.90;99.90;;;;;;4845094;29;20120;-74
2021/12/01 03:20:42;;;;;;;11.75;5.95;;;8.90;99.90;;;;;;4843641;29;20521;-73
2021/12/01 03:23:09;;;;;;;12.55;5.10;;;8.90;99.90;;;;;;4845239;29;20082;-73
2021/12/01 03:25:35;;;;;;;10.68;5.30;;;9.00;99.90;;;;;;4845471;29;20137;-74
2021/12/01 03:28:03;;;;;;;10.80;4.65;;;9.10;99.90;;;;;;4845437;29;20053;-74
2021/12/01 03:30:33;;;;;;;11.18;4.13;;;9.00;99.90;;;;;;4828710;29;20052;-74
2021/12/01 03:33:00;;;;;;;9.38;3.75;;;9.00;99.90;;;;;;4844780;29;20050;-73
2021/12/01 03:35:27;;;;;;;8.00;3.08;;;9.50;99.90;;;;;;4844797;29;20486;-75
2021/12/01 03:37:52;;;;;;;8.38;3.53;;;9.10;99.90;;;;;;4845221;29;20056;-73
2021/12/01 03:40:18;;;;;;;9.48;3.10;;;9.30;99.90;;;;;;4845341;29;20491;-74
2021/12/01 03:42:44;;;;;;;8.32;2.63;;;9.00;99.90;;;;;;4845053;29;20050;-73
2021/12/01 03:45:12;;;;;;;6.72;2.67;;;9.00;99.90;;;;;;4844870;29;20399;-73
2021/12/01 03:47:37;;;;;;;7.45;2.90;;;9.10;99.90;;;;;;4844915;29;20481;-73
2021/12/01 03:50:04;;;;;;;6.75;2.60;;;9.10;99.90;;;;;;4844243;29;20082;-73
2021/12/01 03:52:30;;;;;;;6.50;2.17;;;9.10;99.90;;;;;;4844340;29;20491;-74
2021/12/01 03:54:56;;;;;;;6.10;2.17;;;9.10;99.90;;;;;;4844649;29;20056;-79
2021/12/01 03:57:22;;;;;;;5.90;1.77;;;9.10;99.90;;;;;;4828455;29;20132;-75
2021/12/01 03:59:48;;;;;;;5.47;1.80;;;9.10;99.90;;;;;;4844899;29;20046;-75
2021/12/01 04:02:14;;;;;;;7.35;2.20;;;9.10;99.90;;;;;;4844689;29;20057;-73
2021/12/01 04:04:39;;;;;;;7.50;1.98;;;9.10;99.90;;;;;;4827494;29;20060;-73
2021/12/01 04:07:05;;;;;;;5.05;2.00;;;9.20;99.90;;;;;;4844381;29;20133;-73
2021/12/01 04:09:33;;;;;;;9.18;2.47;;;9.10;99.90;;;;;;4844710;29;20121;-73
2021/12/01 04:11:59;;;;;;;7.25;2.10;;;9.10;99.90;;;;;;4844452;29;20050;-74
2021/12/01 04:14:25;;;;;;;6.40;1.95;;;9.40;99.90;;;;;;4828115;29;20062;-74
2021/12/01 04:16:50;;;;;;;7.25;1.85;;;9.10;99.90;;;;;;4844391;29;20069;-73
2021/12/01 04:19:17;;;;;;;8.60;2.25;;;9.10;99.90;;;;;;4827766;29;20052;-75
2021/12/01 04:21:43;;;;;;;9.32;2.30;;;9.10;99.90;;;;;;4843628;29;20456;-75
2021/12/01 04:24:09;;;;;;;9.15;2.35;;;9.00;99.90;;;;;;4827664;29;20140;-75
2021/12/01 04:26:35;;;;;;;6.90;2.75;;;9.00;99.90;;;;;;4827807;29;20058;-73
2021/12/01 04:29:03;;;;;;;10.30;2.17;;;9.00;99.90;;;;;;4844335;29;20052;-74
2021/12/01 04:31:31;;;;;;;8.82;2.63;;;9.00;99.90;;;;;;4844108;29;20380;-73
2021/12/01 04:33:58;;;;;;;7.80;2.65;;;9.00;99.90;;;;;;4844222;29;20180;-73
2021/12/01 04:36:31;;;;;;;9.43;2.58;;;9.00;99.90;;;;;;4842019;29;20054;-75
2021/12/01 04:38:57;;;;;;;7.90;2.38;;;9.00;99.90;;;;;;4827562;29;20089;-71
2021/12/01 04:41:23;;;;;;;10.63;2.50;;;9.00;99.90;;;;;;4843987;29;20077;-73
2021/12/01 04:43:50;;;;;;;6.53;2.22;;;9.00;99.90;;;;;;4842315;29;20156;-75
2021/12/01 04:46:19;;;;;;;6.03;2.33;;;9.20;99.90;;;;;;4842544;29;20046;-73
2021/12/01 04:48:44;;;;;;;9.23;3.28;;;8.90;99.90;;;;;;4843883;29;20463;-73
2021/12/01 04:51:10;;;;;;;8.25;2.90;;;8.90;99.90;;;;;;4843532;29;20041;-75
2021/12/01 04:53:37;;;;;;;10.02;3.38;;;9.00;99.90;;;;;;4842451;29;20428;-75
2021/12/01 04:56:04;;;;;;;9.07;2.88;;;9.10;99.90;;;;;;4843825;29;20050;-74
2021/12/01 04:58:30;;;;;;;8.73;3.78;;;8.90;99.90;;;;;;4842376;29;20110;-73
2021/12/01 05:00:57;;;;;;;6.65;2.58;;;8.90;99.90;;;;;;4843634;29;20450;-73
2021/12/01 05:03:23;;;;;;;6.78;2.78;;;9.50;99.90;;;;;;4842880;29;20054;-75
2021/12/01 05:05:50;;;;;;;7.75;3.00;;;8.90;99.90;;;;;;4843472;29;20525;-75
2021/12/01 05:08:15;;;;;;;9.35;3.10;;;9.50;99.90;;;;;;4842875;29;20105;-73
2021/12/01 05:10:41;;;;;;;7.55;3.13;;;8.90;99.90;;;;;;4843533;29;20128;-75
2021/12/01 05:13:07;;;;;;;8.27;3.55;;;8.90;99.90;;;;;;4826510;29;20421;-74
2021/12/01 05:15:32;;;;;;;8.02;3.40;;;8.90;99.90;;;;;;4827328;29;20065;-73
2021/12/01 05:17:58;;;;;;;7.18;3.00;;;8.90;99.90;;;;;;4843450;29;20050;-75
2021/12/01 05:20:23;;;;;;;7.13;2.85;;;8.90;99.90;;;;;;4843486;29;20416;-74
2021/12/01 05:22:49;;;;;;;7.00;2.58;;;8.90;99.90;;;;;;4826711;29;20093;-74
2021/12/01 05:25:15;;;;;;;7.10;2.80;;;8.90;99.90;;;;;;4842813;29;20050;-75
2021/12/01 05:27:40;;;;;;;7.22;2.65;;;8.80;99.90;;;;;;4843278;29;20052;-75
2021/12/01 05:30:06;;;;;;;6.68;2.50;;;8.80;99.90;;;;;;4843250;29;20057;-74
2021/12/01 05:32:32;;;;;;;6.85;2.90;;;8.80;99.90;;;;;;4826654;29;20045;-74
2021/12/01 05:34:59;;;;;;;6.53;2.50;;;9.10;99.90;;;;;;4826779;29;20053;-75
2021/12/01 05:37:25;;;;;;;7.47;2.55;;;8.80;99.90;;;;;;4842804;29;20050;-72
2021/12/01 05:39:51;;;;;;;5.97;2.20;;;9.20;99.90;;;;;;4826389;29;20564;-73
2021/12/01 05:42:17;;;;;;;4.93;1.90;;;8.80;99.90;;;;;;4841798;29;20054;-74
2021/12/01 05:44:44;;;;;;;5.60;2.40;;;8.70;99.90;;;;;;4842806;29;20053;-74
2021/12/01 05:47:10;;;;;;;5.28;1.85;;;8.70;99.90;;;;;;4842950;29;20049;-76
2021/12/01 05:49:44;;;;;;;4.88;1.80;;;8.70;99.90;;;;;;4842650;29;20049;-74
2021/12/01 05:52:10;;;;;;;4.57;1.60;;;8.60;99.90;;;;;;4841478;29;20053;-74
2021/12/01 05:54:36;;;;;;;4.72;1.90;;;8.60;99.90;;;;;;4826211;29;20060;-73
2021/12/01 05:57:03;;;;;;;4.68;1.70;;;8.60;99.90;;;;;;4842506;29;20041;-72
2021/12/01 05:59:29;;;;;;;5.10;1.88;;;8.60;99.90;;;;;;4841283;29;20491;-74
2021/12/01 06:01:55;;;;;;;5.50;1.85;;;8.60;99.90;;;;;;4842365;29;20597;-73
2021/12/01 06:04:24;;;;;;;5.32;2.03;;;8.50;99.90;;;;;;4842431;29;20129;-74
2021/12/01 06:06:50;;;;;;;4.97;1.90;;;9.10;99.90;;;;;;4842476;29;20065;-75
2021/12/01 06:09:16;;;;;;;5.22;2.00;;;8.50;99.90;;;;;;4842664;29;20158;-73
2021/12/01 06:11:42;;;;;;;5.63;2.00;;;8.50;99.90;;;;;;4842105;29;20133;-74
2021/12/01 06:14:08;;;;;;;4.82;1.90;;;8.50;99.90;;;;;;4842497;29;20578;-74
2021/12/01 06:16:34;;;;;;;6.63;2.35;;;8.40;99.90;;;;;;4824867;29;20599;-74
2021/12/01 06:19:00;;;;;;;4.93;1.85;;;8.40;99.90;;;;;;4842286;29;20046;-74
2021/12/01 06:21:25;;;;;;;5.35;2.00;;;8.40;99.90;;;;;;4842161;29;20065;-75
2021/12/01 06:23:51;;;;;;;4.88;1.80;;;8.40;99.90;;;;;;4840660;29;20053;-72
2021/12/01 06:26:17;;;;;;;5.30;1.80;;;8.40;99.90;;;;;;4841906;29;20821;-71
2021/12/01 06:28:43;;;;;;;5.20;2.22;;;8.40;99.90;;;;;;4842058;29;20050;-72
2021/12/01 06:31:09;;;;;;;4.78;1.83;;;8.30;99.90;;;;;;4840165;29;20056;-71
2021/12/01 06:33:35;;;;;;;4.85;1.73;;;8.80;99.90;;;;;;4841571;29;20084;-80
2021/12/01 06:36:01;;;;;;;4.20;1.60;;;8.30;99.90;;;;;;4824992;29;20090;-73
2021/12/01 06:38:26;;;;;;;4.63;1.50;;;8.50;99.90;;;;;;4824683;29;20140;-71
2021/12/01 06:40:52;;;;;;;4.32;1.25;;;8.30;99.90;;;;;;4840852;29;20082;-75
2021/12/01 06:43:18;;;;;;;3.20;1.30;;;8.80;99.90;;;;;;4825214;29;20054;-79
2021/12/01 06:45:45;;;;;;;5.63;1.58;;;8.20;99.90;;;;;;4841955;29;20558;-75
2021/12/01 06:48:10;;;;;;;3.88;1.30;;;8.30;99.90;;;;;;4842260;29;20094;-75
2021/12/01 06:50:36;;;;;;;3.30;1.17;;;8.20;99.90;;;;;;4842156;29;20501;-74
2021/12/01 06:53:04;;;;;;;5.47;1.40;;;8.30;99.90;;;;;;4841878;29;20399;-75
2021/12/01 06:55:30;;;;;;;4.88;1.60;;;8.50;99.90;;;;;;4842029;29;20057;-75
2021/12/01 06:57:55;;;;;;;3.75;1.33;;;8.30;99.90;;;;;;4841779;29;20066;-73
2021/12/01 07:00:21;;;;;;;4.07;1.58;;;8.30;99.90;;;;;;4842017;29;20050;-73
2021/12/01 07:02:47;;;;;;;4.53;1.58;;;8.20;99.90;;;;;;4842000;29;20078;-74
2021/12/01 07:05:13;;;;;;;3.08;1.17;;;8.30;99.90;;;;;;4841992;29;20065;-75
2021/12/01 07:07:39;;;;;;;4.22;1.20;;;8.30;99.90;;;;;;4825401;29;20050;-74
2021/12/01 07:10:07;;;;;;;3.88;1.50;;;8.30;99.90;;;;;;4825508;29;20410;-75
2021/12/01 07:12:32;;;;;;;4.93;1.45;;;8.30;99.90;;;;;;4842168;29;20162;-75
2021/12/01 07:14:58;;;;;;;5.18;1.60;;;8.20;99.90;;;;;;4825149;29;20141;-74
2021/12/01 07:17:24;;;;;;;3.17;1.20;;;8.20;99.90;;;;;;4840707;29;20065;-74
2021/12/01 07:19:49;;;;;;;3.97;1.40;;;8.20;99.90;;;;;;4840311;29;20058;-74
2021/12/01 07:22:16;;;;;;;3.92;1.38;;;8.40;99.90;;;;;;4841840;29;20521;-74
2021/12/01 07:24:43;;;;;;;4.07;1.60;;;8.90;99.90;;;;;;4838685;29;20057;-73
2021/12/01 07:27:09;;;;;;;4.35;1.50;;;8.20;99.90;;;;;;4840174;29;20057;-72
2021/12/01 07:29:35;;;;;;;4.68;1.40;;;8.20;99.90;;;;;;4843595;29;20495;-74
2021/12/01 07:32:01;;;;;;;4.28;1.70;;;8.20;99.90;;;;;;4843657;29;20514;-73
2021/12/01 07:34:27;;;;;;;3.35;1.30;;;8.20;99.90;;;;;;4842938;29;20068;-73
2021/12/01 07:36:53;;;;;;;4.90;1.85;;;8.20;99.90;;;;;;4827218;29;20634;-73
2021/12/01 07:39:19;;;;;;;4.70;1.50;;;8.20;99.90;;;;;;4826746;29;20049;-73
2021/12/01 07:41:46;;;;;;;4.32;1.20;;;8.50;99.90;;;;;;4843561;29;20057;-73
2021/12/01 07:44:12;;;;;;;3.88;1.50;;;8.10;99.90;;;;;;4842980;29;20049;-74
2021/12/01 07:46:38;;;;;;;5.35;1.60;;;8.10;99.90;;;;;;4843373;29;20066;-72
2021/12/01 07:49:04;;;;;;;6.43;1.33;;;8.10;99.90;;;;;;4842949;29;20125;-72
2021/12/01 07:51:31;;;;;;;6.50;1.50;;;8.30;99.90;;;;;;4843525;29;20050;-73
2021/12/01 07:53:56;;;;;;;4.07;1.38;;;8.10;99.90;;;;;;4843291;29;20068;-73
2021/12/01 07:56:22;;;;;;;3.20;1.30;;;8.20;99.90;;;;;;4842829;29;20053;-74
2021/12/01 07:58:48;;;;;;;3.97;1.20;;;8.70;99.90;;;;;;4827087;29;20129;-75
2021/12/01 08:01:13;;;;;;;3.15;1.15;;;8.10;99.90;;;;;;4825350;29;20064;-73
2021/12/01 08:03:39;;;;;;;5.00;1.50;;;8.10;99.90;;;;;;4843096;29;20125;-72
2021/12/01 08:06:05;;;;;;;3.88;1.30;;;8.20;99.90;;;;;;4841396;29;20651;-73
2021/12/01 08:08:31;;;;;;;4.95;1.48;;;8.10;99.90;;;;;;4826938;29;20089;-78
2021/12/01 08:10:56;;;;;;;5.13;1.50;;;8.10;99.90;;;;;;4842151;29;20049;-75
2021/12/01 08:13:22;;;;;;;5.00;1.35;;;8.50;99.90;;;;;;4838764;29;20069;-72
2021/12/01 08:15:49;;;;;;;2.92;1.20;;;8.10;99.90;;;;;;4841960;29;20495;-82
2021/12/01 08:18:16;;;;;;;3.22;1.00;;;8.10;99.90;;;;;;4841741;29;20451;-76
2021/12/01 08:20:42;;;;;;;3.65;1.27;;;8.10;99.90;;;;;;4842035;29;20056;-72
2021/12/01 08:23:08;;;;;;;4.00;1.30;;;8.10;99.90;;;;;;4825826;29;20495;-72
2021/12/01 08:25:35;;;;;;;4.00;1.08;;;8.10;99.90;;;;;;4841206;29;20065;-71
2021/12/01 08:28:02;;;;;;;3.58;1.30;;;8.20;99.90;;;;;;4842518;29;20053;-72
2021/12/01 08:30:29;;;;;;;4.82;1.77;;;8.10;99.90;;;;;;4842316;29;20125;-70
2021/12/01 08:32:56;;;;;;;6.47;2.10;;;8.20;99.90;;;;;;4842116;29;20066;-69
2021/12/01 08:35:24;;;;;;;4.55;1.80;;;8.20;99.90;;;;;;4841590;29;20232;-71
2021/12/01 08:37:52;;;;;;;6.40;2.20;;;8.70;99.90;;;;;;4825410;29;20459;-72
2021/12/01 08:40:18;;;;;;;3.75;1.70;;;8.30;99.90;;;;;;4841442;29;20046;-72
2021/12/01 08:42:46;;;;;;;4.05;1.88;;;8.30;99.90;;;;;;4826126;29;20665;-71
2021/12/01 08:45:12;;;;;;;4.68;1.98;;;8.40;99.90;;;;;;4843348;29;20190;-72
2021/12/01 08:47:38;;;;;;;5.32;1.80;;;8.40;99.90;;;;;;4842592;29;20057;-75
2021/12/01 08:50:07;;;;;;;7.82;2.65;;;8.40;99.90;;;;;;4843348;29;20050;-79
2021/12/01 08:52:33;;;;;;;6.10;2.25;;;8.40;99.90;;;;;;4841049;29;20068;-72
2021/12/01 08:54:59;;;;;;;8.32;2.28;;;8.50;99.90;;;;;;4838179;29;20054;-71
2021/12/01 08:57:25;;;;;;;6.85;2.38;;;8.40;99.90;;;;;;4823630;29;20498;-77
2021/12/01 08:59:51;;;;;;;7.05;2.78;;;8.40;99.90;;;;;;4823257;29;20082;-73
2021/12/01 09:02:17;;;;;;;9.30;2.42;;;8.60;99.90;;;;;;4839099;29;20117;-73
2021/12/01 09:04:43;;;;;;;8.02;2.58;;;8.40;99.90;;;;;;4819249;29;20053;-70
2021/12/01 09:07:09;;;;;;;6.47;2.40;;;8.40;99.90;;;;;;4845875;29;20058;-79
2021/12/01 09:09:35;;;;;;;4.72;1.77;;;8.40;99.90;;;;;;4839961;29;20431;-77
2021/12/01 09:12:01;;;;;;;8.43;2.42;;;8.80;99.90;;;;;;4838023;29;20053;-75
2021/12/01 09:14:26;;;;;;;6.38;2.03;;;8.50;99.90;;;;;;4838157;29;20114;-75
2021/12/01 09:16:55;;;;;;;7.13;2.22;;;8.40;99.90;;;;;;4839318;29;20054;-72
2021/12/01 09:19:21;;;;;;;4.78;1.80;;;8.50;99.90;;;;;;4822750;29;20134;-71
2021/12/01 09:21:48;;;;;;;6.05;2.17;;;8.80;99.90;;;;;;4838158;29;20102;-73
2021/12/01 09:24:15;;;;;;;4.85;1.80;;;8.90;99.90;;;;;;4838986;29;20102;-73
2021/12/01 09:26:41;;;;;;;6.00;1.80;;;8.60;99.90;;;;;;4837937;29;20066;-74
2021/12/01 09:29:07;;;;;;;5.90;1.38;;;8.70;99.90;;;;;;4812359;29;20495;-75
2021/12/01 09:31:33;;;;;;;6.80;2.00;;;8.70;99.90;;;;;;4823352;29;20077;-72
2021/12/01 09:33:59;;;;;;;4.43;1.30;;;8.70;99.90;;;;;;4824710;29;20072;-69
2021/12/01 09:36:24;;;;;;;7.68;1.90;;;8.80;99.90;;;;;;4837412;29;20046;-73
2021/12/01 09:38:50;;;;;;;7.15;1.95;;;8.80;99.90;;;;;;4839504;29;20083;-72
2021/12/01 09:41:16;;;;;;;6.53;1.63;;;8.80;99.90;;;;;;4844696;29;20145;-75
2021/12/01 09:43:42;;;;;;;7.38;1.73;;;9.40;99.90;;;;;;4834706;29;20061;-74
2021/12/01 09:46:10;;;;;;;7.32;1.20;;;9.30;99.90;;;;;;4836472;29;20133;-72
2021/12/01 09:48:38;;;;;;;5.47;1.20;;;8.80;99.90;;;;;;4822555;29;20068;-75
2021/12/01 09:51:05;;;;;;;6.07;1.25;;;8.80;99.90;;;;;;4840979;29;20046;-70
2021/12/01 09:53:31;;;;;;;5.95;1.15;;;8.90;99.90;;;;;;4822199;29;20062;-75
2021/12/01 09:55:57;;;;;;;5.38;0.90;;;8.90;99.90;;;;;;4811743;29;20064;-70
2021/12/01 09:58:30;;;;;;;6.78;1.20;;;8.90;99.90;;;;;;4839303;29;20050;-74
2021/12/01 10:00:58;;;;;;;3.90;1.02;;;8.80;99.90;;;;;;4846529;29;20053;-73
2021/12/01 10:03:24;;;;;;;5.88;1.55;;;8.70;99.90;;;;;;4823363;29;20094;-73
2021/12/01 10:06:09;;;;;;;5.85;1.20;;;8.60;99.90;;;;;;4837411;29;20058;-75
2021/12/01 10:08:36;;;;;;;7.50;1.15;;;8.90;99.90;;;;;;4834718;29;20063;-74
2021/12/01 10:11:14;;;;;;;8.85;1.00;;;8.50;99.90;;;;;;4839398;29;20129;-71
2021/12/01 10:13:43;;;;;;;3.78;1.10;;;8.40;99.90;;;;;;4847571;29;20133;-71
2021/12/01 10:16:12;;;;;;;5.70;1.00;;;8.50;99.90;;;;;;4840202;29;20085;-74
2021/12/01 10:18:49;;;;;;;3.67;1.13;;;8.40;99.90;;;;;;4839929;29;20085;-75
2021/12/01 10:21:19;;;;;;;5.75;1.00;;;8.40;99.90;;;;;;4820747;29;20054;-74
2021/12/01 10:23:57;;;;;;;3.65;0.68;;;8.50;99.90;;;;;;4839332;29;20058;-75
2021/12/01 10:26:28;;;;;;;8.52;1.08;;;8.70;99.90;;;;;;4842201;29;20046;-70
2021/12/01 10:29:00;;;;;;;11.25;1.00;;;8.60;99.90;;;;;;4830982;29;20112;-76
2021/12/01 10:31:42;;;;;;;5.55;1.13;;;8.60;99.90;;;;;;4839345;29;20070;-73
2021/12/01 10:34:27;;;;;;;6.50;1.08;;;8.90;99.90;;;;;;4840237;29;20080;-73
2021/12/01 10:37:14;;;;;;;5.47;0.93;;;8.70;99.90;;;;;;4839779;29;20056;-72
2021/12/01 10:39:42;;;;;;;10.82;1.15;;;8.70;99.90;;;;;;4838919;29;20068;-76
2021/12/01 10:42:11;;;;;;;4.93;0.90;;;8.80;99.90;;;;;;4839817;29;20045;-74
2021/12/01 10:44:36;;;;;;;10.43;1.10;;;8.80;99.90;;;;;;4823077;29;20133;-74
2021/12/01 10:47:11;;;;;;;6.00;1.15;;;8.80;99.90;;;;;;4839154;29;20198;-75
2021/12/01 10:49:40;;;;;;;8.57;1.30;;;8.80;99.90;;;;;;4834944;29;20058;-76
2021/12/01 10:52:12;;;;;;;7.55;1.20;;;8.90;99.90;;;;;;4838870;29;20046;-73
2021/12/01 10:54:38;;;;;;;9.43;1.35;;;8.90;99.90;;;;;;4822699;29;20146;-70
2021/12/01 10:57:19;;;;;;;8.07;1.13;;;8.90;99.90;;;;;;4839441;29;20119;-75
2021/12/01 10:59:46;;;;;;;9.32;1.30;;;8.80;99.90;;;;;;4837523;29;20518;-74
2021/12/01 11:02:13;;;;;;;8.52;1.80;;;8.80;99.90;;;;;;4838972;29;20797;-73
2021/12/01 11:04:47;;;;;;;6.75;1.40;;;8.80;99.90;;;;;;4843283;29;20069;-73
2021/12/01 11:07:35;;;;;;;8.20;1.30;;;8.90;99.90;;;;;;4842697;29;20061;-74
2021/12/01 11:10:19;;;;;;;9.95;1.10;;;8.90;99.90;;;;;;4841573;29;20042;-73
2021/12/01 11:13:04;;;;;;;9.65;1.42;;;8.80;99.90;;;;;;4841782;29;20161;-72
2021/12/01 11:15:31;;;;;;;8.68;1.10;;;8.90;99.90;;;;;;4826420;29;20487;-72
2021/12/01 11:17:58;;;;;;;8.20;0.88;;;8.80;99.90;;;;;;4840334;29;20422;-72
2021/12/01 11:20:44;;;;;;;9.73;1.70;;;8.70;99.90;;;;;;4842817;29;20495;-74
2021/12/01 11:23:27;;;;;;;5.65;1.25;;;8.90;99.90;;;;;;4842154;29;20129;-76
2021/12/01 11:26:04;;;;;;;7.50;0.82;;;8.60;99.90;;;;;;4841558;29;20057;-71
2021/12/01 11:28:32;;;;;;;6.70;1.02;;;8.70;99.90;;;;;;4840778;29;20049;-73
2021/12/01 11:31:01;;;;;;;7.03;1.13;;;8.70;99.90;;;;;;4826543;29;20066;-70
2021/12/01 11:33:28;;;;;;;10.13;1.20;;;8.70;99.90;;;;;;4825571;29;20133;-75
2021/12/01 11:36:04;;;;;;;6.28;1.02;;;8.60;99.90;;;;;;4826174;29;20057;-72
2021/12/01 11:38:30;;;;;;;9.65;1.40;;;8.70;99.90;;;;;;4841060;29;20053;-72
2021/12/01 11:40:56;;;;;;;10.52;1.10;;;8.60;99.90;;;;;;4825714;29;20058;-73
2021/12/01 11:43:26;;;;;;;6.00;1.33;;;8.60;99.90;;;;;;4842448;29;20149;-74
2021/12/01 11:45:52;;;;;;;7.95;1.90;;;8.60;99.90;;;;;;4839770;29;20054;-74
2021/12/01 11:48:27;;;;;;;6.03;1.05;;;8.60;99.90;;;;;;4838707;29;20042;-72
2021/12/01 11:51:23;;;;;;;10.07;1.35;;;8.60;99.90;;;;;;4839317;29;20072;-71
2021/12/01 11:54:03;;;;;;;10.77;1.35;;;8.60;99.90;;;;;;4840145;29;20495;-74
2021/12/01 11:56:37;;;;;;;7.60;1.38;;;8.70;99.90;;;;;;4838042;29;20065;-73
2021/12/01 11:59:15;;;;;;;10.68;1.50;;;9.20;99.90;;;;;;4837967;29;20081;-72
2021/12/01 12:01:43;;;;;;;8.70;1.38;;;8.60;99.90;;;;;;4823773;29;20057;-71
2021/12/01 12:04:11;;;;;;;6.72;1.45;;;8.60;99.90;;;;;;4820214;29;20100;-77
2021/12/01 12:06:45;;;;;;;8.85;1.63;;;8.70;99.90;;;;;;4847021;29;20054;-75
2021/12/01 12:09:16;;;;;;;10.40;1.50;;;8.50;99.90;;;;;;4820646;29;20069;-72
2021/12/01 12:12:00;;;;;;;9.85;2.20;;;8.40;99.90;;;;;;4835886;29;20053;-73
2021/12/01 12:14:27;;;;;;;16.05;2.15;;;8.60;99.90;;;;;;4829818;29;20050;-76
2021/12/01 12:17:16;;;;;;;13.82;2.30;;;8.40;99.90;;;;;;4839828;29;20050;-78
2021/12/01 12:20:00;;;;;;;13.82;2.40;;;8.30;99.90;;;;;;4820887;29;20060;-81
2021/12/01 12:22:38;;;;;;;11.02;2.00;;;8.30;99.90;;;;;;4829426;29;20173;-73
2021/12/01 12:25:10;;;;;;;12.32;2.28;;;8.40;99.90;;;;;;4803946;29;20534;-73
2021/12/01 12:27:36;;;;;;;;;;;8.30;99.90;;;;;;4839505;29;20058;-75
2021/12/01 12:30:13;;;;;;;9.70;1.90;;;8.40;99.90;;;;;;4835331;29;19941;-74
2021/12/01 12:32:42;;;;;;;12.00;2.08;;;8.30;99.90;;;;;;4823603;29;20054;-74
2021/12/01 12:35:16;;;;;;;17.13;2.58;;;8.30;99.90;;;;;;4833437;29;20050;-78
2021/12/01 12:37:43;;;;;;;13.23;1.85;;;8.30;99.90;;;;;;4848417;29;20392;-71
2021/12/01 12:40:21;;;;;;;13.35;2.03;;;8.20;99.90;;;;;;4838746;29;20054;-71
2021/12/01 12:43:10;;;;;;;12.75;1.77;;;8.50;99.90;;;;;;4828092;29;20050;-75
2021/12/01 12:45:39;;;;;;;14.95;2.38;;;8.00;99.90;;;;;;4838120;29;20785;-72
2021/12/01 12:48:26;;;;;;;12.07;2.30;;;7.90;99.90;;;;;;4821922;29;20534;-73
2021/12/01 12:51:12;;;;;;;14.27;2.58;;;8.40;99.90;;;;;;4842138;29;20050;-73
2021/12/01 12:53:59;;;;;;;15.02;2.58;;;7.90;99.90;;;;;;4841606;29;20115;-73
2021/12/01 12:56:27;;;;;;;11.55;1.83;;;7.80;99.90;;;;;;4841878;29;20061;-72
2021/12/01 12:59:12;;;;;;;12.38;2.03;;;7.80;99.90;;;;;;4837803;29;20058;-74
2021/12/01 13:01:38;;;;;;;12.05;2.10;;;7.80;99.90;;;;;;4841664;29;20042;-74